Flight Track Log - Related Links

Times and Time Zones

All times are in EDT time to prevent confusion due to time zone crossing. See the AWE728 flight status page for this flight to view local times or setup timezone preferences in your user account.

Time Position Orientation Groundspeed Altitude Reporting Facility
EDT Latitude Longitude Course Direction KTS MPH feet Rate Location/Type
Sun 10:00:36 PM 39.8788 -75.2052 76° East 153 176 1,100  Level FlightAware ADS-B
Sun 10:00:51 PM 39.8814 -75.1917 76° East 154 177 1,600 1,655 Climbing FlightAware ADS-B
Sun 10:01:05 PM 39.8839 -75.1785 76° East 166 191 1,900 1,200 Climbing FlightAware ADS-B
Sun 10:01:21 PM 39.8867 -75.1627 77° East 177 204 2,200 1,200 Climbing FlightAware ADS-B
Sun 10:01:30 PM 39.8886 -75.1525 76° East 188 216 2,400 1,600 Climbing FlightAware ADS-B
Sun 10:01:36 PM 39.8895 -75.1466 79° East 193 222 2,600 1,500 Climbing FlightAware ADS-B
Sun 10:01:42 PM 39.8902 -75.1385 84° East 198 228 2,700 1,200 Climbing FlightAware ADS-B
Sun 10:01:46 PM 39.8904 -75.1347 86° East 202 232 2,800 1,714 Climbing FlightAware ADS-B
Sun 10:01:49 PM 39.8904 -75.1305 90° East 205 236 2,900 1,800 Climbing FlightAware ADS-B
Sun 10:01:56 PM 39.8898 -75.1213 95° East 211 243 3,100 1,500 Climbing FlightAware ADS-B
Sun 10:02:01 PM 39.8890 -75.1154 100° East 216 249 3,200 1,500 Climbing FlightAware ADS-B
Sun 10:02:12 PM 39.8859 -75.1007 105° East 226 260 3,500 1,909 Climbing FlightAware ADS-B
Sun 10:02:23 PM 39.8821 -75.0873 110° East 233 268 3,900 1,846 Climbing FlightAware ADS-B
Sun 10:02:38 PM 39.8758 -75.0664 111° Southeast 246 283 4,300 2,049 Climbing FlightAware ADS-B
Sun 10:03:04 PM 39.8654 -75.0297 110° East 257 296 5,300 2,195 Climbing FlightAware ADS-B
Sun 10:03:19 PM 39.8600 -75.0072 107° East 265 305 5,800 2,323 Climbing FlightAware ADS-B
Sun 10:03:35 PM 39.8546 -74.9831 106° East 270 311 6,500 2,647 Climbing FlightAware ADS-B
Sun 10:03:53 PM 39.8483 -74.9545 106° East 272 313 7,300 2,727 Climbing FlightAware ADS-B
Sun 10:04:08 PM 39.8430 -74.9303 106° East 273 314 8,000 2,800 Climbing FlightAware ADS-B
Sun 10:04:23 PM 39.8376 -74.9067 107° East 272 313 8,700 2,710 Climbing FlightAware ADS-B
Sun 10:04:39 PM 39.8318 -74.8815 107° East 272 313 9,400 2,438 Climbing FlightAware ADS-B
Sun 10:04:55 PM 39.8259 -74.8563 107° East 274 315 10,000 1,375 Climbing FlightAware ADS-B
Sun 10:05:27 PM 39.8138 -74.8039 107° East 308 354 10,500 1,050 Climbing FlightAware ADS-B
Sun 10:05:35 PM 39.8104 -74.7889 106° East 318 366 10,700 923 Climbing FlightAware ADS-B
Sun 10:05:40 PM 39.8090 -74.7792 101° East 323 372 10,700 667 Level FlightAware ADS-B
Sun 10:05:44 PM 39.8085 -74.7713 95° East 327 376 10,800 857 Climbing FlightAware ADS-B
Sun 10:05:47 PM 39.8089 -74.7650 85° East 332 382 10,800 1,000 Level FlightAware ADS-B
Sun 10:05:50 PM 39.8097 -74.7589 80° East 335 386 10,900 1,000 Climbing FlightAware ADS-B
Sun 10:05:53 PM 39.8109 -74.7530 75° East 340 391 10,900 857 Level FlightAware ADS-B
Sun 10:05:57 PM 39.8128 -74.7463 70° East 344 396 11,000 1,091 Climbing FlightAware ADS-B
Sun 10:06:15 PM 39.8260 -74.7109 64° Northeast 361 415 11,300 1,625 Climbing FlightAware ADS-B
Sun 10:06:45 PM 39.8469 -74.6508 66° East 369 425 12,300 2,164 Climbing FlightAware ADS-B
Sun 10:07:16 PM 39.8680 -74.5883 66° East 373 429 13,500 2,262 Climbing FlightAware ADS-B
Sun 10:07:46 PM 39.8891 -74.5258 66° East 378 435 14,600 2,000 Climbing FlightAware ADS-B
Sun 10:08:16 PM 39.9103 -74.4625 66° East 384 442 15,500 1,800 Climbing FlightAware ADS-B
Sun 10:08:46 PM 39.9319 -74.3980 66° East 391 450 16,400 1,672 Climbing FlightAware ADS-B
Sun 10:09:17 PM 39.9545 -74.3303 66° East 397 457 17,200 1,455 Climbing FlightAware ADS-B
Sun 10:09:52 PM 39.9740 -74.2700 67° East 403 464 18,000 1,692 Climbing FlightAware ADS-B
Sun 10:09:56 PM 39.9833 -74.2437 65° Northeast 405 466 18,300 2,057 Climbing FlightAware ADS-B
Sun 10:10:27 PM 40.0064 -74.1743 66° East 411 473 19,200 1,574 Climbing FlightAware ADS-B
Sun 10:10:57 PM 40.0294 -74.1050 67° East 417 480 19,900 1,524 Climbing FlightAware ADS-B
Sun 10:11:30 PM 40.0542 -74.0297 67° East 420 483 20,800 1,594 Climbing FlightAware ADS-B
Sun 10:12:01 PM 40.0785 -73.9559 67° East 424 488 21,600 1,548 Climbing FlightAware ADS-B
Sun 10:12:32 PM 40.1022 -73.8838 67° East 425 489 22,400 1,548 Climbing FlightAware ADS-B
Sun 10:13:03 PM 40.1259 -73.8113 67° East 427 491 23,200 1,742 Climbing FlightAware ADS-B
Sun 10:13:34 PM 40.1499 -73.7380 67° East 423 487 24,200 1,770 Climbing FlightAware ADS-B
Sun 10:14:04 PM 40.1729 -73.6677 67° East 422 486 25,000 1,355 Climbing FlightAware ADS-B
Sun 10:14:36 PM 40.1976 -73.5917 67° East 426 490 25,600 1,031 Climbing FlightAware ADS-B
Sun 10:15:08 PM 40.2222 -73.5159 67° East 431 496 26,100 1,017 Climbing FlightAware ADS-B
Sun 10:15:35 PM 40.2432 -73.4515 67° East 433 498 26,600 947 Climbing FlightAware ADS-B
Sun 10:15:46 PM 40.2540 -73.4252 62° Northeast 432 497 26,700 1,091 Climbing FlightAware ADS-B
Sun 10:15:57 PM 40.2669 -73.4022 54° Northeast 429 494 27,000 1,500 Climbing FlightAware ADS-B
Sun 10:16:02 PM 40.2739 -73.3917 49° Northeast 429 494 27,100 1,071 Climbing FlightAware ADS-B
Sun 10:16:53 PM 40.3432 -73.2955 47° Northeast 431 496 28,000 1,012 Climbing FlightAware ADS-B
Sun 10:17:25 PM 40.3859 -73.2359 47° Northeast 432 497 28,500 971 Climbing FlightAware ADS-B
Sun 10:18:01 PM 40.4362 -73.1657 47° Northeast 434 499 29,100 857 Climbing FlightAware ADS-B
Sun 10:18:35 PM 40.4826 -73.1008 47° Northeast 437 503 29,500 738 Climbing FlightAware ADS-B
Sun 10:19:06 PM 40.5259 -73.0400 47° Northeast 442 509 29,900 677 Climbing FlightAware ADS-B
Sun 10:19:37 PM 40.5686 -72.9802 47° Northeast 444 511 30,200 787 Climbing FlightAware ADS-B
Sun 10:20:07 PM 40.6114 -72.9199 47° Northeast 444 511 30,700 984 Climbing FlightAware ADS-B
Sun 10:20:38 PM 40.6550 -72.8584 47° Northeast 443 510 31,200 968 Climbing FlightAware ADS-B
Sun 10:21:09 PM 40.6978 -72.7979 47° Northeast 442 509 31,700 968 Climbing FlightAware ADS-B
Sun 10:21:40 PM 40.7411 -72.7365 47° Northeast 439 505 32,200 984 Climbing FlightAware ADS-B
Sun 10:22:10 PM 40.7825 -72.6779 47° Northeast 437 503 32,700 871 Climbing FlightAware ADS-B
Sun 10:22:42 PM 40.8252 -72.6171 47° Northeast 437 503 33,100 774 Climbing FlightAware ADS-B
Sun 10:23:12 PM 40.8664 -72.5584 47° Northeast 437 503 33,500 689 Climbing FlightAware ADS-B
Sun 10:23:43 PM 40.9097 -72.4966 47° Northeast 439 505 33,800 787 Climbing FlightAware ADS-B
Sun 10:24:13 PM 40.9510 -72.4375 47° Northeast 436 502 34,300 1,200 Climbing FlightAware ADS-B
Sun 10:24:43 PM 40.9915 -72.3794 47° Northeast 427 491 35,000 1,180 Climbing FlightAware ADS-B
Sun 10:25:14 PM 41.0317 -72.3215 47° Northeast 425 489 35,500 689 Climbing FlightAware ADS-B
Sun 10:25:44 PM 41.0723 -72.2631 47° Northeast 427 491 35,700 393 Climbing FlightAware ADS-B
Sun 10:26:15 PM 41.1131 -72.2043 47° Northeast 429 494 35,900 492 Climbing FlightAware ADS-B
Sun 10:26:45 PM 41.1534 -72.1461 47° Northeast 430 495 36,200 571 Climbing FlightAware ADS-B
Sun 10:27:18 PM 41.1981 -72.0814 47° Northeast 430 495 36,500 563 Climbing FlightAware ADS-B
Sun 10:27:49 PM 41.2405 -72.0198 48° Northeast 431 496 36,800 395 Climbing FlightAware ADS-B
Sun 10:28:34 PM 41.3000 -71.9332 48° Northeast 434 499 37,000 136 Climbing FlightAware ADS-B
Sun 10:29:17 PM 41.3530 -71.8560 48° Northeast 441 507 37,000  Level FlightAware ADS-B
Sun 10:30:02 PM 41.4090 -71.7730 48° Northeast 446 513 37,000  Level FlightAware ADS-B
Sun 10:30:42 PM 41.4740 -71.6790 47° Northeast 447 514 37,000  Level FlightAware ADS-B
Sun 10:31:22 PM 41.5280 -71.5990 48° Northeast 448 516 37,000  Level FlightAware ADS-B
Sun 10:32:07 PM 41.5890 -71.5090 48° Northeast 448 516 37,000  Level FlightAware ADS-B
Sun 10:32:47 PM 41.6430 -71.4290 48° Northeast 448 516 37,000  Level FlightAware ADS-B
Sun 10:33:27 PM 41.6980 -71.3480 48° Northeast 448 516 37,000  Level FlightAware ADS-B
Sun 10:34:12 PM 41.7610 -71.2530 48° Northeast 446 513 37,000  Level FlightAware ADS-B
Sun 10:34:52 PM 41.8120 -71.1780 48° Northeast 446 513 37,000  Level FlightAware ADS-B
Sun 10:35:37 PM 41.8780 -71.0790 48° Northeast 444 511 37,000  Level FlightAware ADS-B
Sun 10:36:17 PM 41.9340 -70.9950 48° Northeast 443 510 37,000  Level FlightAware ADS-B
Sun 10:36:57 PM 41.9880 -70.9130 48° Northeast 444 511 37,000  Level FlightAware ADS-B
Sun 10:37:57 PM 42.0660 -70.7950 48° Northeast 438 504 37,000  Level FlightAware ADS-B
Sun 10:38:32 PM 42.1120 -70.7250 48° Northeast 444 511 37,000  Level FlightAware ADS-B
Sun 10:39:12 PM 42.1660 -70.6430 48° Northeast 443 510 37,000  Level FlightAware ADS-B
Sun 10:39:57 PM 42.2310 -70.5450 48° Northeast 443 510 37,000  Level FlightAware ADS-B
Sun 10:40:42 PM 42.2920 -70.4510 49° Northeast 444 511 37,000  Level FlightAware ADS-B
Sun 10:41:27 PM 42.3520 -70.3580 49° Northeast 445 512 37,000  Level FlightAware ADS-B
Sun 10:42:02 PM 42.4000 -70.2850 48° Northeast 446 513 37,000  Level FlightAware ADS-B
Sun 10:42:47 PM 42.4610 -70.1910 49° Northeast 443 510 37,000  Level FlightAware ADS-B
Sun 10:43:32 PM 42.5180 -70.1020 49° Northeast 444 511 37,000  Level FlightAware ADS-B
Sun 10:44:12 PM 42.5780 -70.0100 48° Northeast 445 512 37,000  Level FlightAware ADS-B
Sun 10:44:57 PM 42.6390 -69.9160 49° Northeast 444 511 37,000  Level FlightAware ADS-B
Sun 10:45:37 PM 42.6930 -69.8310 49° Northeast 444 511 37,000  Level FlightAware ADS-B
Sun 10:46:32 PM 42.7680 -69.7130 49° Northeast 449 517 37,000  Level FlightAware ADS-B
Sun 10:47:27 PM 42.8350 -69.6070 49° Northeast 449 517 37,000  Level FlightAware ADS-B
Sun 10:48:02 PM 42.8950 -69.5130 49° Northeast 453 521 37,000  Level FlightAware ADS-B
Sun 10:49:07 PM 42.9820 -69.3750 49° Northeast 453 521 37,000  Level FlightAware ADS-B
Sun 10:49:47 PM 43.0390 -69.2840 49° Northeast 453 521 37,000  Level FlightAware ADS-B
Sun 10:50:32 PM 43.0960 -69.1930 49° Northeast 454 522 37,000  Level FlightAware ADS-B
Sun 10:51:07 PM 43.1420 -69.1210 49° Northeast 454 522 37,000  Level FlightAware ADS-B
Sun 10:51:47 PM 43.1890 -69.0470 49° Northeast 454 522 37,000  Level FlightAware ADS-B
Sun 10:52:37 PM 43.2470 -68.9540 49° Northeast 454 522 37,000  Level FlightAware ADS-B
Sun 10:53:17 PM 43.3250 -68.8240 50° Northeast 455 524 37,000  Level FlightAware ADS-B
Sun 10:54:02 PM 43.3860 -68.7250 50° Northeast 456 525 37,000  Level FlightAware ADS-B
Sun 10:54:52 PM 43.4500 -68.6220 49° Northeast 456 525 37,000  Level FlightAware ADS-B
Sun 10:55:52 PM 43.5290 -68.4940 50° Northeast 456 525 37,000  Level FlightAware ADS-B
Sun 10:56:27 PM 43.5790 -68.4100 51° Northeast 456 525 37,000  Level FlightAware ADS-B
Sun 10:57:12 PM 43.6390 -68.3120 50° Northeast 452 520 37,000  Level FlightAware ADS-B
Sun 10:57:57 PM 43.6930 -68.2220 50° Northeast 452 520 37,000  Level FlightAware ADS-B
Sun 10:58:42 PM 43.7610 -68.1100 50° Northeast 438 504 37,000  Level FlightAware ADS-B
Sun 10:59:22 PM 43.8120 -68.0240 51° Northeast 433 498 37,000  Level FlightAware ADS-B
Sun 11:00:07 PM 43.8710 -67.9260 50° Northeast 437 503 37,000  Level FlightAware ADS-B
Sun 11:00:47 PM 43.9230 -67.8380 51° Northeast 439 505 37,000  Level FlightAware ADS-B
Sun 11:01:27 PM 43.9750 -67.7540 49° Northeast 442 509 37,000  Level FlightAware ADS-B
Sun 11:02:12 PM 44.0360 -67.6500 51° Northeast 445 512 37,000  Level FlightAware ADS-B
Sun 11:02:52 PM 44.0870 -67.5630 51° Northeast 444 511 37,000  Level FlightAware ADS-B
Sun 11:03:32 PM 44.1400 -67.4720 51° Northeast 444 511 37,000  Level FlightAware ADS-B
Sun 11:04:17 PM 44.1990 -67.3730 50° Northeast 442 509 37,000  Level FlightAware ADS-B
Sun 11:05:02 PM 44.2580 -67.2730 50° Northeast 442 509 37,000  Level FlightAware ADS-B
Sun 11:05:42 PM 44.3100 -67.1820 51° Northeast 442 509 37,000  Level FlightAware ADS-B
Sun 11:06:22 PM 44.3620 -67.0940 50° Northeast 442 509 37,000  Level FlightAware ADS-B
Sun 11:07:07 PM 44.4220 -66.9910 51° Northeast 444 511 37,000  Level FlightAware ADS-B
Sun 11:07:47 PM 44.4710 -66.8990 53° Northeast 444 511 37,000  Level FlightAware ADS-B
Sun 11:08:32 PM 44.5280 -66.7940 53° Northeast 442 509 37,000  Level FlightAware ADS-B
Sun 11:09:12 PM 44.5770 -66.7030 53° Northeast 443 510 37,000  Level FlightAware ADS-B
Sun 11:09:52 PM 44.6260 -66.6110 53° Northeast 443 510 37,000  Level FlightAware ADS-B
Sun 11:10:37 PM 44.6830 -66.5060 53° Northeast 442 509 37,000  Level FlightAware ADS-B
Sun 11:11:17 PM 44.7320 -66.4130 53° Northeast 443 510 37,000  Level FlightAware ADS-B
Sun 11:12:02 PM 44.7880 -66.3080 53° Northeast 443 510 37,000  Level FlightAware ADS-B
Sun 11:12:42 PM 44.8370 -66.2150 53° Northeast 444 511 37,000  Level FlightAware ADS-B
Sun 11:13:22 PM 44.8870 -66.1200 53° Northeast 445 512 37,000  Level FlightAware ADS-B
Sun 11:14:07 PM 44.9420 -66.0160 53° Northeast 445 512 37,000  Level FlightAware ADS-B
Sun 11:14:47 PM 44.9920 -65.9210 53° Northeast 444 511 37,000  Level FlightAware ADS-B
Sun 11:15:32 PM 45.0480 -65.8140 53° Northeast 444 511 37,000  Level FlightAware ADS-B
Sun 11:16:12 PM 45.0970 -65.7190 54° Northeast 444 511 37,000  Level FlightAware ADS-B
Sun 11:16:52 PM 45.1470 -65.6230 54° Northeast 445 512 37,000  Level FlightAware ADS-B
Sun 11:17:37 PM 45.2020 -65.5160 54° Northeast 447 514 37,000  Level FlightAware ADS-B
Sun 11:18:17 PM 45.2500 -65.4230 54° Northeast 446 513 37,000  Level FlightAware ADS-B
Sun 11:19:02 PM 45.3070 -65.3130 54° Northeast 446 513 37,000  Level FlightAware ADS-B
Sun 11:19:42 PM 45.3550 -65.2190 54° Northeast 446 513 37,000  Level FlightAware ADS-B
Sun 11:20:27 PM 45.4110 -65.1090 54° Northeast 450 518 37,000  Level FlightAware ADS-B
Sun 11:21:07 PM 45.4610 -65.0100 54° Northeast 458 527 37,000  Level FlightAware ADS-B
Sun 11:21:47 PM 45.5100 -64.9140 54° Northeast 463 533 37,000  Level FlightAware ADS-B
Sun 11:22:32 PM 45.5680 -64.7980 54° Northeast 465 535 37,000  Level FlightAware ADS-B
Sun 11:23:12 PM 45.6190 -64.6980 54° Northeast 466 536 37,000  Level FlightAware ADS-B
Sun 11:23:57 PM 45.6740 -64.5870 55° Northeast 465 535 37,000  Level FlightAware ADS-B
Sun 11:24:37 PM 45.7240 -64.4860 55° Northeast 465 535 37,000  Level FlightAware ADS-B
Sun 11:25:17 PM 45.7710 -64.3910 55° Northeast 464 534 37,000  Level FlightAware ADS-B
Sun 11:26:02 PM 45.8300 -64.2720 55° Northeast 464 534 37,000  Level FlightAware ADS-B
Sun 11:26:42 PM 45.8800 -64.1720 54° Northeast 467 537 37,000  Level FlightAware ADS-B
Sun 11:27:27 PM 45.9340 -64.0620 55° Northeast 468 539 37,000  Level FlightAware ADS-B
Sun 11:28:07 PM 45.9850 -63.9580 55° Northeast 470 541 37,000  Level FlightAware ADS-B
Sun 11:29:02 PM 46.0540 -63.8160 55° Northeast 473 544 37,000  Level FlightAware ADS-B
Sun 11:29:37 PM 46.0940 -63.7340 55° Northeast 474 545 37,000  Level FlightAware ADS-B
Sun 11:30:22 PM 46.1460 -63.6260 55° Northeast 474 545 37,000  Level FlightAware ADS-B
Sun 11:31:12 PM 46.1990 -63.5160 55° Northeast 474 545 37,000  Level FlightAware ADS-B
Sun 11:31:52 PM 46.2420 -63.4280 55° Northeast 474 545 37,000  Level FlightAware ADS-B
Sun 11:32:32 PM 46.2850 -63.3390 55° Northeast 474 545 37,000  Level FlightAware ADS-B
Sun 11:33:12 PM 46.3280 -63.2510 55° Northeast 474 545 37,000  Level FlightAware ADS-B
Sun 11:33:52 PM 46.3710 -63.1620 55° Northeast 474 545 37,000  Level FlightAware ADS-B
Sun 11:34:42 PM 46.4240 -63.0520 55° Northeast 474 545 37,000  Level FlightAware ADS-B
Sun 11:35:22 PM 46.4670 -62.9630 55° Northeast 474 545 37,000  Level FlightAware ADS-B
Sun 11:36:02 PM 46.5090 -62.8740 56° Northeast 474 545 37,000  Level FlightAware ADS-B
Sun 11:36:42 PM 46.5520 -62.7850 55° Northeast 474 545 37,000  Level FlightAware ADS-B
Sun 11:37:22 PM 46.5950 -62.6970 55° Northeast 474 545 37,000  Level FlightAware ADS-B
Sun 11:38:12 PM 46.6480 -62.5850 55° Northeast 474 545 37,000  Level FlightAware ADS-B
Sun 11:38:52 PM 46.6910 -62.4960 55° Northeast 474 545 37,000  Level FlightAware ADS-B
Sun 11:39:32 PM 46.7340 -62.4070 55° Northeast 474 545 37,000 343 Level FlightAware ADS-B
Sun 11:44:42 PM 47.1840 -61.3860 57° Northeast 469 540 39,000 343 Climbing FlightAware ADS-B
Sun 11:45:22 PM 47.2260 -61.2950 56° Northeast 469 540 39,000  Level FlightAware ADS-B
Sun 11:46:02 PM 47.2800 -61.1720 57° Northeast 471 542 39,000  Level FlightAware ADS-B
Sun 11:46:42 PM 47.3220 -61.0790 56° Northeast 471 542 39,000  Level FlightAware ADS-B
Sun 11:47:22 PM 47.3710 -60.9630 58° Northeast 473 544 39,000  Level FlightAware ADS-B
Sun 11:48:07 PM 47.4200 -60.8530 57° Northeast 473 544 39,000  Level FlightAware ADS-B
Sun 11:48:47 PM 47.4610 -60.7600 57° Northeast 473 544 39,000  Level FlightAware ADS-B
Sun 11:49:37 PM 47.5110 -60.6450 57° Northeast 473 544 39,000  Level FlightAware ADS-B
Sun 11:50:17 PM 47.5520 -60.5520 57° Northeast 473 544 39,000  Level FlightAware ADS-B
Sun 11:50:57 PM 47.5920 -60.4600 57° Northeast 473 544 39,000  Level FlightAware ADS-B
Sun 11:51:37 PM 47.6330 -60.3670 57° Northeast 473 544 39,000  Level FlightAware ADS-B
Sun 11:52:17 PM 47.6730 -60.2750 57° Northeast 473 544 39,000  Level FlightAware ADS-B
Sun 11:53:07 PM 47.7240 -60.1590 57° Northeast 473 544 39,000  Level FlightAware ADS-B
Sun 11:53:47 PM 47.7640 -60.0660 57° Northeast 473 544 39,000  Level FlightAware ADS-B
Sun 11:54:22 PM 47.8650 -59.8140 59° Northeast 477 549 39,000  Level FlightAware ADS-B
Sun 11:55:12 PM 47.9160 -59.6930 58° Northeast 477 549 39,000  Level FlightAware ADS-B
Sun 11:55:52 PM 47.9680 -59.5690 58° Northeast 477 549 39,000  Level FlightAware ADS-B
Sun 11:56:32 PM 48.0080 -59.4730 58° Northeast 477 549 39,000  Level FlightAware ADS-B
Sun 11:57:27 PM 48.0830 -59.2920 58° Northeast 480 552 39,000  Level FlightAware ADS-B
Sun 11:58:12 PM 48.1370 -59.1600 58° Northeast 480 552 39,000  Level FlightAware ADS-B
Sun 11:58:47 PM 48.1720 -59.0760 58° Northeast 480 552 39,000  Level FlightAware ADS-B
Sun 11:59:27 PM 48.2250 -58.9450 59° Northeast 480 552 39,000  Level FlightAware ADS-B
Mon 12:00:32 AM 48.2960 -58.7700 59° Northeast 482 555 39,000  Level FlightAware ADS-B
Mon 12:01:27 AM 48.3630 -58.6040 59° Northeast 483 556 39,000  Level FlightAware ADS-B
Mon 12:02:02 AM 48.4020 -58.5070 59° Northeast 485 558 39,000  Level FlightAware ADS-B
Mon 12:02:52 AM 48.4580 -58.3660 59° Northeast 486 559 39,000  Level FlightAware ADS-B
Mon 12:03:32 AM 48.5050 -58.2470 59° Northeast 486 559 39,000  Level FlightAware ADS-B
Mon 12:04:22 AM 48.5640 -58.0960 59° Northeast 488 562 39,000  Level FlightAware ADS-B
Mon 12:05:37 AM 48.6420 -57.8710 62° Northeast 490 564 39,000  Level FlightAware ADS-B
Mon 12:06:22 AM 48.6880 -57.7410 62° Northeast 492 566 39,000  Level FlightAware ADS-B
Mon 12:07:12 AM 48.7410 -57.5880 62° Northeast 493 567 39,000  Level FlightAware ADS-B
Mon 12:07:57 AM 48.7900 -57.4450 62° Northeast 493 567 39,000  Level FlightAware ADS-B
Mon 12:08:42 AM 48.8390 -57.3040 62° Northeast 494 568 39,000  Level FlightAware ADS-B
Mon 12:09:22 AM 48.8800 -57.1810 63° Northeast 495 570 39,000  Level FlightAware ADS-B
Mon 12:10:02 AM 48.9220 -57.0590 62° Northeast 496 571 39,000  Level FlightAware ADS-B
Mon 12:10:52 AM 48.9750 -56.9030 63° Northeast 496 571 39,000  Level FlightAware ADS-B
Mon 12:11:32 AM 49.0160 -56.7790 63° Northeast 497 572 39,000  Level FlightAware ADS-B
Mon 12:12:17 AM 49.0630 -56.6400 63° Northeast 497 572 39,000  Level FlightAware ADS-B
Mon 12:12:57 AM 49.1040 -56.5170 63° Northeast 497 572 39,000  Level FlightAware ADS-B
Mon 12:13:37 AM 49.1460 -56.3900 63° Northeast 497 572 39,000  Level FlightAware ADS-B
Mon 12:14:17 AM 49.1870 -56.2640 63° Northeast 497 572 39,000  Level FlightAware ADS-B
Mon 12:14:57 AM 49.2290 -56.1380 63° Northeast 498 573 39,000  Level FlightAware ADS-B
Mon 12:15:42 AM 49.2750 -55.9960 64° Northeast 500 575 39,000  Level FlightAware ADS-B
Mon 12:16:27 AM 49.3210 -55.8530 64° Northeast 503 579 39,000  Level FlightAware ADS-B
Mon 12:17:07 AM 49.3600 -55.7320 64° Northeast 504 580 39,000  Level FlightAware ADS-B
Mon 12:17:52 AM 49.4080 -55.5810 64° Northeast 504 580 39,000  Level FlightAware ADS-B
Mon 12:18:47 AM 49.4640 -55.4060 64° Northeast 504 580 39,000  Level FlightAware ADS-B
Mon 12:19:22 AM 49.5000 -55.2930 64° Northeast 505 581 39,000  Level FlightAware ADS-B
Mon 12:20:07 AM 49.5460 -55.1480 64° Northeast 505 581 39,000  Level FlightAware ADS-B
Mon 12:20:52 AM 49.5920 -55.0010 64° Northeast 505 581 39,000  Level FlightAware ADS-B
Mon 12:21:32 AM 49.6320 -54.8710 65° Northeast 505 581 39,000  Level FlightAware ADS-B
Mon 12:22:12 AM 49.6720 -54.7430 64° Northeast 505 581 39,000  Level FlightAware ADS-B
Mon 12:22:52 AM 49.7120 -54.6130 65° Northeast 506 582 39,000  Level FlightAware ADS-B
Mon 12:23:37 AM 49.7570 -54.4670 64° Northeast 506 582 39,000  Level FlightAware ADS-B
Mon 12:24:22 AM 49.8020 -54.3180 65° Northeast 506 582 39,000  Level FlightAware ADS-B
Mon 12:25:02 AM 49.8410 -54.1880 65° Northeast 505 581 39,000  Level FlightAware ADS-B
Mon 12:25:42 AM 49.8810 -54.0570 65° Northeast 506 582 39,000  Level FlightAware ADS-B
Mon 12:26:22 AM 49.9200 -53.9260 65° Northeast 508 585 39,000  Level FlightAware ADS-B
Mon 12:27:12 AM 49.9690 -53.7590 65° Northeast 509 586 39,000  Level FlightAware ADS-B
Mon 12:27:47 AM 50.0040 -53.6430 65° Northeast 510 587 39,000  Level FlightAware ADS-B
Mon 12:28:32 AM 50.0480 -53.4930 65° Northeast 509 586 39,000  Level FlightAware ADS-B
Mon 12:29:17 AM 50.0910 -53.3450 66° East 509 586 39,000  Level FlightAware ADS-B
Mon 12:29:57 AM 50.1290 -53.2140 66° East 510 587 39,000  Level FlightAware ADS-B
Mon 12:30:37 AM 50.1690 -53.0760 66° East 511 588 39,000  Level FlightAware ADS-B
Mon 12:31:22 AM 50.2120 -52.9260 66° East 512 589 39,000  Level FlightAware ADS-B
Mon 12:31:57 AM 50.2440 -52.8160 66° East 512 589 39,000  Level FlightAware ADS-B
Mon 12:32:42 AM 50.2860 -52.6660 66° East 514 592 39,000  Level FlightAware ADS-B
Mon 12:33:27 AM 50.3320 -52.5040 66° East 516 594 39,000  Level FlightAware ADS-B
Mon 12:34:02 AM 50.3660 -52.3830 66° East 517 595 39,000  Level FlightAware ADS-B
Mon 12:34:52 AM 50.4130 -52.2130 66° East 518 596 39,000  Level FlightAware ADS-B
Mon 12:35:42 AM 50.4560 -52.0620 66° East 518 596 39,000  Level FlightAware ADS-B
Mon 12:36:27 AM 50.5020 -51.8910 67° East 519 597 39,000  Level FlightAware ADS-B
Mon 12:37:12 AM 50.5420 -51.7490 66° East 518 596 39,000  Level FlightAware ADS-B
Mon 12:37:52 AM 50.5750 -51.6320 66° East 518 596 39,000  Level FlightAware ADS-B
Mon 12:38:32 AM 50.6080 -51.5150 66° East 518 596 39,000  Level FlightAware ADS-B
Mon 12:39:12 AM 50.6410 -51.3970 66° East 518 596 39,000  Level FlightAware ADS-B
Mon 12:40:02 AM 50.6830 -51.2500 66° East 518 596 39,000  Level FlightAware ADS-B
Mon 12:40:42 AM 50.7160 -51.1330 66° East 518 596 39,000  Level FlightAware ADS-B
Mon 12:41:22 AM 50.7490 -51.0150 66° East 518 596 39,000  Level FlightAware ADS-B
Mon 12:42:02 AM 50.7820 -50.8980 66° East 518 596 39,000  Level FlightAware ADS-B
Mon 12:42:42 AM 50.8150 -50.7800 66° East 518 596 39,000  Level FlightAware ADS-B
Mon 12:43:22 AM 50.8480 -50.6620 66° East 518 596 39,000  Level FlightAware ADS-B
Mon 12:44:12 AM 50.8900 -50.5150 66° East 518 596 39,000  Level FlightAware ADS-B
Mon 12:44:52 AM 50.9230 -50.3960 66° East 518 596 39,000  Level FlightAware ADS-B
Mon 12:45:32 AM 50.9560 -50.2780 66° East 518 596 39,000  Level FlightAware ADS-B
Mon 12:46:12 AM 50.9890 -50.1600 66° East 518 596 39,000  Level FlightAware ADS-B
Mon 12:46:44 AM 51.0167 -49.6333 66° East 530 610 39,000  Level Gander Center
Mon 12:47:44 AM 51.0333 -49.4167 83° East 530 610 39,000  Level Gander Center
Mon 12:48:44 AM 51.0833 -49.1667 72° East 540 621 39,000  Level Gander Center
Mon 12:49:44 AM 51.1167 -48.9667 75° East 540 621 39,000  Level Gander Center
Mon 12:51:00 AM 51.1485 -48.7361 77° East  Level FlightAware Approximate
Mon 12:58:00 AM 51.3377 -47.2835 78° East  Level FlightAware Approximate
Mon 12:59:00 AM 51.3633 -47.0751 79° East  Level FlightAware Approximate
Mon 01:00:00 AM 51.3885 -46.8664 79° East  Level FlightAware Approximate
Mon 01:01:00 AM 51.4133 -46.6574 79° East  Level FlightAware Approximate
Mon 01:02:00 AM 51.4378 -46.4483 79° East  Level FlightAware Approximate
Mon 01:03:00 AM 51.4618 -46.2389 79° East  Level FlightAware Approximate
Mon 01:04:00 AM 51.4855 -46.0293 80° East  Level FlightAware Approximate
Mon 01:05:00 AM 51.5089 -45.8195 80° East  Level FlightAware Approximate
Mon 01:06:00 AM 51.5318 -45.6095 80° East  Level FlightAware Approximate
Mon 01:07:00 AM 51.5544 -45.3993 80° East  Level FlightAware Approximate
Mon 01:08:00 AM 51.5766 -45.1888 80° East  Level FlightAware Approximate
Mon 01:09:00 AM 51.5984 -44.9782 80° East  Level FlightAware Approximate
Mon 01:10:00 AM 51.6199 -44.7673 81° East  Level FlightAware Approximate
Mon 01:11:00 AM 51.6409 -44.5563 81° East  Level FlightAware Approximate
Mon 01:12:00 AM 51.6616 -44.3451 81° East  Level FlightAware Approximate
Mon 01:13:00 AM 51.6819 -44.1336 81° East  Level FlightAware Approximate
Mon 01:14:00 AM 51.7019 -43.9220 81° East  Level FlightAware Approximate
Mon 01:15:00 AM 51.7214 -43.7102 81° East  Level FlightAware Approximate
Mon 01:16:00 AM 51.7406 -43.4982 82° East  Level FlightAware Approximate
Mon 01:17:00 AM 51.7594 -43.2861 82° East  Level FlightAware Approximate
Mon 01:18:00 AM 51.7778 -43.0737 82° East  Level FlightAware Approximate
Mon 01:19:00 AM 51.7958 -42.8612 82° East  Level FlightAware Approximate
Mon 01:20:00 AM 51.8134 -42.6486 82° East  Level FlightAware Approximate
Mon 01:21:00 AM 51.8307 -42.4357 82° East  Level FlightAware Approximate
Mon 01:22:00 AM 51.8475 -42.2227 83° East  Level FlightAware Approximate
Mon 01:23:00 AM 51.8640 -42.0096 83° East  Level FlightAware Approximate
Mon 01:24:00 AM 51.8801 -41.7963 83° East  Level FlightAware Approximate
Mon 01:25:00 AM 51.8958 -41.5828 83° East  Level FlightAware Approximate
Mon 01:26:00 AM 51.9112 -41.3692 83° East  Level FlightAware Approximate
Mon 01:27:00 AM 51.9261 -41.1554 83° East  Level FlightAware Approximate
Mon 01:28:00 AM 51.9407 -40.9416 84° East  Level FlightAware Approximate
Mon 01:29:00 AM 51.9548 -40.7275 84° East  Level FlightAware Approximate
Mon 01:30:00 AM 51.9686 -40.5134 84° East  Level FlightAware Approximate
Mon 01:31:00 AM 51.9820 -40.2991 84° East  Level FlightAware Approximate
Mon 01:32:00 AM 51.9950 -40.0846 84° East  Level FlightAware Approximate
Mon 01:33:00 AM 52.0184 -39.8730 77° East  Level FlightAware Approximate
Mon 01:34:00 AM 52.0484 -39.6629 77° East  Level FlightAware Approximate
Mon 01:35:00 AM 52.0781 -39.4525 77° East  Level FlightAware Approximate
Mon 01:36:00 AM 52.1074 -39.2419 77° East  Level FlightAware Approximate
Mon 01:37:00 AM 52.1364 -39.0310 77° East  Level FlightAware Approximate
Mon 01:38:00 AM 52.1649 -38.8198 77° East  Level FlightAware Approximate
Mon 01:39:00 AM 52.1931 -38.6084 78° East  Level FlightAware Approximate
Mon 01:40:00 AM 52.2209 -38.3967 78° East  Level FlightAware Approximate
Mon 01:41:00 AM 52.2483 -38.1847 78° East  Level FlightAware Approximate
Mon 01:42:00 AM 52.2754 -37.9725 78° East  Level FlightAware Approximate
Mon 01:43:00 AM 52.3020 -37.7600 78° East  Level FlightAware Approximate
Mon 01:44:00 AM 52.3283 -37.5472 78° East  Level FlightAware Approximate
Mon 01:45:00 AM 52.3542 -37.3342 79° East  Level FlightAware Approximate
Mon 01:46:00 AM 52.3797 -37.1210 79° East  Level FlightAware Approximate
Mon 01:47:00 AM 52.4048 -36.9075 79° East  Level FlightAware Approximate
Mon 01:48:00 AM 52.4296 -36.6938 79° East  Level FlightAware Approximate
Mon 01:49:00 AM 52.4539 -36.4798 79° East  Level FlightAware Approximate
Mon 01:50:00 AM 52.4779 -36.2656 80° East  Level FlightAware Approximate
Mon 01:51:00 AM 52.5015 -36.0512 80° East  Level FlightAware Approximate
Mon 01:52:00 AM 52.5247 -35.8365 80° East  Level FlightAware Approximate
Mon 01:53:00 AM 52.5475 -35.6216 80° East  Level FlightAware Approximate
Mon 01:54:00 AM 52.5699 -35.4065 80° East  Level FlightAware Approximate
Mon 01:55:00 AM 52.5919 -35.1912 80° East  Level FlightAware Approximate
Mon 01:56:00 AM 52.6136 -34.9756 81° East  Level FlightAware Approximate
Mon 01:57:00 AM 52.6348 -34.7599 81° East  Level FlightAware Approximate
Mon 01:58:00 AM 52.6557 -34.5439 81° East  Level FlightAware Approximate
Mon 01:59:00 AM 52.6761 -34.3278 81° East  Level FlightAware Approximate
Mon 02:00:00 AM 52.6962 -34.1114 81° East  Level FlightAware Approximate
Mon 02:01:00 AM 52.7159 -33.8948 81° East  Level FlightAware Approximate
Mon 02:02:00 AM 52.7351 -33.6781 82° East  Level FlightAware Approximate
Mon 02:03:00 AM 52.7540 -33.4611 82° East  Level FlightAware Approximate
Mon 02:04:00 AM 52.7725 -33.2440 82° East  Level FlightAware Approximate
Mon 02:05:00 AM 52.7906 -33.0267 82° East  Level FlightAware Approximate
Mon 02:06:00 AM 52.8083 -32.8092 82° East  Level FlightAware Approximate
Mon 02:07:00 AM 52.8256 -32.5915 82° East  Level FlightAware Approximate
Mon 02:08:00 AM 52.8424 -32.3737 83° East  Level FlightAware Approximate
Mon 02:09:00 AM 52.8590 -32.1557 83° East  Level FlightAware Approximate
Mon 02:10:00 AM 52.8750 -31.9375 83° East  Level FlightAware Approximate
Mon 02:11:00 AM 52.8907 -31.7192 83° East  Level FlightAware Approximate
Mon 02:12:00 AM 52.9060 -31.5007 83° East  Level FlightAware Approximate
Mon 02:13:00 AM 52.9209 -31.2820 83° East  Level FlightAware Approximate
Mon 02:14:00 AM 52.9354 -31.0632 84° East  Level FlightAware Approximate
Mon 02:15:00 AM 52.9495 -30.8443 84° East  Level FlightAware Approximate
Mon 02:16:00 AM 52.9632 -30.6252 84° East  Level FlightAware Approximate
Mon 02:17:00 AM 52.9765 -30.4060 84° East  Level FlightAware Approximate
Mon 02:18:00 AM 52.9894 -30.1867 84° East  Level FlightAware Approximate
Mon 02:19:00 AM 53.0014 -29.9671 86° East  Level FlightAware Approximate
Mon 02:20:00 AM 53.0104 -29.7471 86° East  Level FlightAware Approximate
Mon 02:21:00 AM 53.0189 -29.5271 86° East  Level FlightAware Approximate
Mon 02:22:00 AM 53.0271 -29.3069 86° East  Level FlightAware Approximate
Mon 02:23:00 AM 53.0349 -29.0866 87° East  Level FlightAware Approximate
Mon 02:24:00 AM 53.0422 -28.8663 87° East  Level FlightAware Approximate
Mon 02:25:00 AM 53.0492 -28.6459 87° East  Level FlightAware Approximate
Mon 02:26:00 AM 53.0557 -28.4254 87° East  Level FlightAware Approximate
Mon 02:27:00 AM 53.0619 -28.2049 87° East  Level FlightAware Approximate
Mon 02:28:00 AM 53.0676 -27.9843 87° East  Level FlightAware Approximate
Mon 02:29:00 AM 53.0729 -27.7636 88° East  Level FlightAware Approximate
Mon 02:30:00 AM 53.0778 -27.5429 88° East  Level FlightAware Approximate
Mon 02:31:00 AM 53.0823 -27.3222 88° East  Level FlightAware Approximate
Mon 02:32:00 AM 53.0864 -27.1014 88° East  Level FlightAware Approximate
Mon 02:33:00 AM 53.0901 -26.8805 88° East  Level FlightAware Approximate
Mon 02:34:00 AM 53.0934 -26.6597 88° East  Level FlightAware Approximate
Mon 02:35:00 AM 53.0963 -26.4388 89° East  Level FlightAware Approximate
Mon 02:36:00 AM 53.0987 -26.2178 89° East  Level FlightAware Approximate
Mon 02:37:00 AM 53.1008 -25.9969 89° East  Level FlightAware Approximate
Mon 02:38:00 AM 53.1024 -25.7759 89° East  Level FlightAware Approximate
Mon 02:39:00 AM 53.1036 -25.5549 89° East  Level FlightAware Approximate
Mon 02:40:00 AM 53.1045 -25.3339 90° East  Level FlightAware Approximate
Mon 02:41:00 AM 53.1049 -25.1129 90° East  Level FlightAware Approximate
Mon 02:42:00 AM 53.1049 -24.8919 90° East  Level FlightAware Approximate
Mon 02:43:00 AM 53.1045 -24.6709 90° East  Level FlightAware Approximate
Mon 02:44:00 AM 53.1037 -24.4499 90° East  Level FlightAware Approximate
Mon 02:45:00 AM 53.1025 -24.2289 90° East  Level FlightAware Approximate
Mon 02:46:00 AM 53.1008 -24.0079 91° East  Level FlightAware Approximate
Mon 02:47:00 AM 53.0988 -23.7869 91° East  Level FlightAware Approximate
Mon 02:48:00 AM 53.0963 -23.5660 91° East  Level FlightAware Approximate
Mon 02:49:00 AM 53.0935 -23.3451 91° East  Level FlightAware Approximate
Mon 02:50:00 AM 53.0902 -23.1242 91° East  Level FlightAware Approximate
Mon 02:51:00 AM 53.0865 -22.9034 92° East  Level FlightAware Approximate
Mon 02:52:00 AM 53.0824 -22.6826 92° East  Level FlightAware Approximate
Mon 02:53:00 AM 53.0779 -22.4618 92° East  Level FlightAware Approximate
Mon 02:54:00 AM 53.0730 -22.2411 92° East  Level FlightAware Approximate
Mon 02:55:00 AM 53.0677 -22.0205 92° East  Level FlightAware Approximate
Mon 02:56:00 AM 53.0620 -21.7999 92° East  Level FlightAware Approximate
Mon 02:57:00 AM 53.0559 -21.5793 93° East  Level FlightAware Approximate
Mon 02:58:00 AM 53.0493 -21.3589 93° East  Level FlightAware Approximate
Mon 02:59:00 AM 53.0424 -21.1385 93° East  Level FlightAware Approximate
Mon 03:00:00 AM 53.0350 -20.9181 93° East  Level FlightAware Approximate
Mon 03:01:00 AM 53.0273 -20.6979 93° East  Level FlightAware Approximate
Mon 03:02:00 AM 53.0191 -20.4777 93° East  Level FlightAware Approximate
Mon 03:03:00 AM 53.0106 -20.2576 94° East  Level FlightAware Approximate
Mon 03:04:00 AM 53.0016 -20.0376 94° East  Level FlightAware Approximate
Mon 03:05:00 AM 52.9994 -19.8173 90° East  Level FlightAware Approximate
Mon 03:06:00 AM 52.9984 -19.5968 90° East  Level FlightAware Approximate
Mon 03:07:00 AM 52.9969 -19.3764 91° East  Level FlightAware Approximate
Mon 03:08:00 AM 52.9951 -19.1559 91° East  Level FlightAware Approximate
Mon 03:09:00 AM 52.9928 -18.9355 91° East  Level FlightAware Approximate
Mon 03:10:00 AM 52.9901 -18.7151 91° East  Level FlightAware Approximate
Mon 03:11:00 AM 52.9870 -18.4948 91° East  Level FlightAware Approximate
Mon 03:12:00 AM 52.9835 -18.2745 91° East  Level FlightAware Approximate
Mon 03:13:00 AM 52.9796 -18.0542 92° East  Level FlightAware Approximate
Mon 03:14:00 AM 52.9753 -17.8340 92° East  Level FlightAware Approximate
Mon 03:15:00 AM 52.9706 -17.6138 92° East  Level FlightAware Approximate
Mon 03:16:00 AM 52.9655 -17.3936 92° East  Level FlightAware Approximate
Mon 03:17:00 AM 52.9599 -17.1735 92° East  Level FlightAware Approximate
Mon 03:18:00 AM 52.9540 -16.9535 92° East  Level FlightAware Approximate
Mon 03:19:00 AM 52.9476 -16.7335 93° East  Level FlightAware Approximate
Mon 03:20:00 AM 52.9409 -16.5136 93° East  Level FlightAware Approximate
Mon 03:21:00 AM 52.9337 -16.2938 93° East  Level FlightAware Approximate
Mon 03:22:00 AM 52.9262 -16.0740 93° East  Level FlightAware Approximate
Mon 03:23:00 AM 52.9182 -15.8544 93° East  Level FlightAware Approximate
Mon 03:23:32 AM 52.8440 -12.6870 94° East 493 567 39,000  Level FlightAware ADS-B
Mon 03:24:00 AM 52.9098 -15.6348 94° East  Level FlightAware Approximate
Mon 03:24:12 AM 52.8320 -12.5280 97° East 492 566 39,000  Level FlightAware ADS-B
Mon 03:25:07 AM 52.8170 -12.3320 97° East 494 568 39,000  Level FlightAware ADS-B
Mon 03:25:52 AM 52.8030 -12.1650 98° East 493 567 39,000  Level FlightAware ADS-B
Mon 03:26:27 AM 52.7920 -12.0320 98° East 492 566 39,000  Level FlightAware ADS-B
Mon 03:27:12 AM 52.7790 -11.8720 98° East 491 565 39,000  Level FlightAware ADS-B
Mon 03:29:00 AM 52.7479 -11.4807 97° East  Level FlightAware Approximate
Mon 03:29:42 AM 52.7310 -11.3200 97° East 492 566 39,000  Level FlightAware ADS-B
Mon 03:30:22 AM 52.7170 -11.1690 99° East 492 566 39,000  Level FlightAware ADS-B
Mon 03:30:57 AM 52.7050 -11.0350 98° East 490 564 39,000  Level FlightAware ADS-B
Mon 03:31:47 AM 52.6880 -10.8530 99° East 489 563 39,000  Level FlightAware ADS-B
Mon 03:32:27 AM 52.6740 -10.7030 99° East 488 562 39,000  Level FlightAware ADS-B
Mon 03:33:12 AM 52.6600 -10.5480 98° East 486 559 39,000  Level FlightAware ADS-B
Mon 03:33:52 AM 52.6450 -10.3930 99° East 484 557 39,000  Level FlightAware ADS-B
Mon 03:34:32 AM 52.6300 -10.2450 99° East 486 559 39,000  Level FlightAware ADS-B
Mon 03:35:17 AM 52.6140 -10.0830 99° East 487 560 39,000  Level FlightAware ADS-B
Mon 03:35:57 AM 52.5990 -9.9350 99° East 487 560 39,000  Level FlightAware ADS-B
Mon 03:36:37 AM 52.5840 -9.7860 99° East 487 560 39,000  Level FlightAware ADS-B
Mon 03:37:22 AM 52.5670 -9.6220 100° East 488 562 39,000  Level FlightAware ADS-B
Mon 03:38:02 AM 52.5520 -9.4760 100° East 489 563 39,000  Level FlightAware ADS-B
Mon 03:38:47 AM 52.5340 -9.3140 100° East 489 563 39,000  Level FlightAware ADS-B
Mon 03:39:27 AM 52.5180 -9.1640 100° East 491 565 39,000  Level FlightAware ADS-B
Mon 03:40:07 AM 52.5030 -9.0210 100° East 492 566 39,000 -1,579 Level FlightAware ADS-B
Mon 03:40:24 AM 52.4940 -8.9427 100° East 476 548 37,500 -2,571 Descending FlightAware UK
Mon 03:40:42 AM 52.4871 -8.8777 100° East 474 545 37,500 3,214 Level FlightAware UK
Mon 03:40:52 AM 52.4840 -8.8530 100° East 490 564 39,000  Climbing FlightAware ADS-B
Mon 03:41:12 AM 52.4747 -8.7675 100° East 476 548 37,500 -2,368 Descending FlightAware UK
Mon 03:41:30 AM 52.4673 -8.7018 100° East 474 545 37,500 4,500 Level FlightAware UK
Mon 03:41:32 AM 52.4680 -8.7090 100° East 489 563 39,000  Climbing FlightAware ADS-B
Mon 03:41:48 AM 52.4599 -8.6359 100° East 474 545 37,500 -2,647 Descending FlightAware UK
Mon 03:42:06 AM 52.4526 -8.5702 100° East 472 543 37,500 3,103 Level FlightAware UK
Mon 03:42:17 AM 52.4490 -8.5420 100° East 489 563 39,000  Climbing FlightAware ADS-B
Mon 03:42:36 AM 52.4400 -8.4609 100° East 474 545 37,500 -2,432 Descending FlightAware UK
Mon 03:42:54 AM 52.4324 -8.3954 101° East 478 550 37,500 4,286 Level FlightAware UK
Mon 03:42:57 AM 52.4320 -8.3960 101° East 489 563 39,000  Climbing FlightAware ADS-B
Mon 03:43:12 AM 52.4249 -8.3300 101° East 476 548 37,500 -2,727 Descending FlightAware UK
Mon 03:43:30 AM 52.4170 -8.2640 101° East 474 545 37,500 3,000 Level FlightAware UK
Mon 03:43:42 AM 52.4140 -8.2340 101° East 487 560 39,000  Climbing FlightAware ADS-B
Mon 03:44:00 AM 52.4043 -8.1556 101° East 476 548 37,500 -2,500 Descending FlightAware UK
Mon 03:44:18 AM 52.3966 -8.0906 101° East 476 548 37,500 4,091 Level FlightAware UK
Mon 03:44:22 AM 52.3980 -8.1020 101° East 486 559 39,000  Climbing FlightAware ADS-B
Mon 03:44:42 AM 52.3866 -8.0039 101° East 476 548 37,500 -2,368 Descending FlightAware UK
Mon 03:45:00 AM 52.3788 -7.9389 101° East 474 545 37,500 4,500 Level FlightAware UK
Mon 03:45:02 AM 52.3800 -7.9480 101° East 485 558 39,000  Climbing FlightAware ADS-B
Mon 03:45:18 AM 52.3710 -7.8742 101° East 472 543 37,500 -2,647 Descending FlightAware UK
Mon 03:45:36 AM 52.3633 -7.8094 101° East 470 541 37,500 3,103 Level FlightAware UK
Mon 03:45:47 AM 52.3600 -7.7780 101° East 486 559 39,000  Climbing FlightAware ADS-B
Mon 03:46:06 AM 52.3502 -7.7014 101° East 472 543 37,500  Descending FlightAware UK
Mon 03:46:22 AM 52.3450 -7.6560 101° East 488 562 39,000  Climbing FlightAware ADS-B
Mon 03:46:24 AM 52.3423 -7.6365 101° East 472 543 37,500 -4,500 Descending FlightAware UK
Mon 03:46:42 AM 52.3343 -7.5716 101° East 474 545 37,500  Level FlightAware UK
Mon 03:47:00 AM 52.3265 -7.5065 101° East 476 548 37,500 3,000 Level FlightAware UK
Mon 03:47:12 AM 52.3220 -7.4710 101° East 489 563 39,000 -800 Climbing FlightAware ADS-B
Mon 03:47:30 AM 52.3131 -7.3980 101° East 474 545 37,100 -3,667 Descending FlightAware UK
Mon 03:47:48 AM 52.3049 -7.3328 102° East 474 545 36,800 3,273 Descending FlightAware UK
Mon 03:47:52 AM 52.3040 -7.3290 102° East 489 563 38,300 -1,000 Climbing FlightAware ADS-B
Mon 03:48:12 AM 52.2940 -7.2460 102° East 472 543 36,400 -3,474 Descending FlightAware UK
Mon 03:48:30 AM 52.2858 -7.1812 102° East 470 541 36,100 2,880 Descending FlightAware UK
Mon 03:48:37 AM 52.2850 -7.1750 102° East 488 562 37,600 -1,000 Climbing FlightAware ADS-B
Mon 03:48:54 AM 52.2748 -7.0941 102° East 472 543 35,700 -3,771 Descending FlightAware UK
Mon 03:49:12 AM 52.2666 -7.0292 102° East 474 545 35,400 3,130 Descending FlightAware UK
Mon 03:49:17 AM 52.2660 -7.0210 102° East 489 563 36,900 -1,000 Climbing FlightAware ADS-B
Mon 03:49:36 AM 52.2557 -6.9425 102° East 470 541 35,000 -3,568 Descending FlightAware UK
Mon 03:49:54 AM 52.2473 -6.8777 102° East 470 541 34,700 3,714 Descending FlightAware UK
Mon 03:49:57 AM 52.2480 -6.8810 102° East 488 562 36,300 -667 Climbing FlightAware ADS-B
Mon 03:50:12 AM 52.2389 -6.8129 102° East 466 536 34,500 -4,000 Descending FlightAware UK
Mon 03:50:30 AM 52.2305 -6.7482 102° East 470 541 34,100 2,000 Descending FlightAware UK
Mon 03:50:42 AM 52.2260 -6.7130 102° East 486 559 35,500 -800 Climbing FlightAware ADS-B
Mon 03:51:00 AM 52.2163 -6.6408 102° East 466 536 33,700 -857 Descending FlightAware UK
Mon 03:51:17 AM 52.2090 -6.5860 102° East 486 559 35,000 -1,000 Climbing FlightAware ADS-B
Mon 03:51:18 AM 52.2079 -6.5767 102° East 468 539 33,400 -6,000 Descending FlightAware UK
Mon 03:51:36 AM 52.1993 -6.5124 102° East 468 539 33,100 -1,000 Descending FlightAware UK
Mon 03:51:54 AM 52.1910 -6.4480 102° East 468 539 32,800 2,769 Descending FlightAware UK
Mon 03:52:02 AM 52.1880 -6.4270 102° East 490 564 34,300 -1,000 Climbing FlightAware ADS-B
Mon 03:52:18 AM 52.1796 -6.3619 102° East 468 539 32,400 -3,882 Descending FlightAware UK
Mon 03:52:36 AM 52.1709 -6.2967 102° East 470 541 32,100 3,000 Descending FlightAware UK
Mon 03:52:42 AM 52.1690 -6.2830 102° East 500 575 33,600 -1,000 Climbing FlightAware ADS-B
Mon 03:53:00 AM 52.1586 -6.2073 102° East 470 541 31,700 -3,500 Descending FlightAware UK
Mon 03:53:18 AM 52.1498 -6.1408 102° East 468 539 31,500 2,889 Descending FlightAware UK
Mon 03:53:27 AM 52.1480 -6.1270 102° East 502 578 33,000  Climbing FlightAware ADS-B
Mon 03:53:42 AM 52.1377 -6.0524 102° East 468 539 31,500 -2,727 Descending FlightAware UK
Mon 03:54:00 AM 52.1287 -5.9864 102° East 466 536 31,500 3,000 Level FlightAware UK
Mon 03:54:12 AM 52.1240 -5.9550 102° East 501 577 33,000  Climbing FlightAware ADS-B
Mon 03:54:30 AM 52.1124 -5.8763 102° East 466 536 31,500 -2,500 Descending FlightAware UK
Mon 03:54:48 AM 52.0995 -5.8116 108° East 468 539 31,500 4,091 Level FlightAware UK
Mon 03:54:52 AM 52.1000 -5.8130 108° East 503 579 33,000  Climbing FlightAware ADS-B
Mon 03:55:12 AM 52.0838 -5.7248 108° East 466 536 31,500 -2,368 Descending FlightAware UK
Mon 03:55:30 AM 52.0722 -5.6597 106° East 466 536 31,500 4,500 Level FlightAware UK
Mon 03:55:32 AM 52.0720 -5.6600 106° East 503 579 33,000  Climbing FlightAware ADS-B
Mon 03:55:48 AM 52.0604 -5.5946 106° East 468 539 31,500 -2,647 Descending FlightAware UK
Mon 03:56:06 AM 52.0483 -5.5293 107° East 468 539 31,500 3,750 Level FlightAware UK
Mon 03:56:12 AM 52.0450 -5.5140 107° East 505 581 33,000  Climbing FlightAware ADS-B
Mon 03:56:30 AM 52.0320 -5.4422 107° East 468 539 31,500 -2,500 Descending FlightAware UK
Mon 03:56:48 AM 52.0201 -5.3769 107° East 470 541 31,500 3,333 Level FlightAware UK
Mon 03:56:57 AM 52.0160 -5.3550 107° East 505 581 33,000  Climbing FlightAware ADS-B
Mon 03:57:12 AM 52.0042 -5.2900 107° East 468 539 31,500 -2,727 Descending FlightAware UK
Mon 03:57:30 AM 51.9920 -5.2250 107° East 468 539 31,500 3,000 Level FlightAware UK
Mon 03:57:42 AM 51.9850 -5.1910 107° East 503 579 33,000  Climbing FlightAware ADS-B
Mon 03:58:00 AM 51.9715 -5.1168 107° East 468 539 31,500  Descending FlightAware UK
Mon 03:58:17 AM 51.9630 -5.0710 107° East 503 579 33,000  Climbing FlightAware ADS-B
Mon 03:58:18 AM 51.9593 -5.0520 107° East 468 539 31,500 -4,737 Descending FlightAware UK
Mon 03:58:36 AM 51.9471 -4.9873 107° East 468 539 31,500  Level FlightAware UK
Mon 03:58:54 AM 51.9351 -4.9224 107° East 468 539 31,500 2,903 Level FlightAware UK
Mon 03:59:07 AM 51.9290 -4.8890 107° East 502 578 33,000  Climbing FlightAware ADS-B
Mon 03:59:30 AM 51.9105 -4.7932 107° East 468 539 31,500  Descending FlightAware UK
Mon 03:59:47 AM 51.9010 -4.7470 107° East 502 578 33,000  Climbing FlightAware ADS-B
Mon 04:00:06 AM 51.8855 -4.6636 107° East 466 536 31,500 -2,432 Descending FlightAware UK
Mon 04:00:24 AM 51.8731 -4.5993 107° East 468 539 31,500 4,286 Level FlightAware UK
Mon 04:00:27 AM 51.8740 -4.6030 107° East 502 578 33,000  Climbing FlightAware ADS-B
Mon 04:00:42 AM 51.8606 -4.5349 107° East 468 539 31,500 -2,727 Descending FlightAware UK
Mon 04:01:00 AM 51.8480 -4.4706 107° East 468 539 31,500 3,000 Level FlightAware UK
Mon 04:01:12 AM 51.8420 -4.4390 107° East 501 577 33,000  Climbing FlightAware ADS-B
Mon 04:01:30 AM 51.8272 -4.3636 107° East 468 539 31,500 -2,500 Descending FlightAware UK
Mon 04:01:48 AM 51.8148 -4.2993 107° East 468 539 31,500 4,091 Level FlightAware UK
Mon 04:01:52 AM 51.8140 -4.2950 107° East 502 578 33,000  Climbing FlightAware ADS-B
Mon 04:02:12 AM 51.7979 -4.2138 107° East 468 539 31,500 -2,368 Descending FlightAware UK
Mon 04:02:30 AM 51.7853 -4.1497 108° East 470 541 31,500 3,600 Level FlightAware UK
Mon 04:02:37 AM 51.7840 -4.1420 108° East 501 577 33,000  Climbing FlightAware ADS-B
Mon 04:03:01 AM 51.7640 -4.0424 108° East 468 539 31,500  Descending FlightAware UK
Mon 04:03:17 AM 51.7560 -4.0010 108° East 499 574 33,000 1,607 Climbing FlightAware ADS-B
Mon 04:03:57 AM 51.7270 -3.8570 108° East 499 574 33,000 -1,607 Level FlightAware ADS-B
Mon 04:04:13 AM 51.7131 -3.7876 108° East 468 539 31,500 -2,850 Descending FlightAware UK
Mon 04:04:37 AM 51.6992 -3.7017 105° East 466 536 31,100 2,483 Descending FlightAware UK
Mon 04:04:42 AM 51.6980 -3.6960 105° East 499 574 32,700 -750 Climbing FlightAware ADS-B
Mon 04:05:01 AM 51.6870 -3.6150 105° East 468 539 30,800 -1,050 Descending FlightAware UK
Mon 04:05:22 AM 51.6770 -3.5490 105° East 502 578 32,000 -1,167 Climbing FlightAware ADS-B
Mon 04:05:37 AM 51.6678 -3.4835 105° East 470 541 30,100 -1,500 Descending FlightAware UK
Mon 04:05:50 AM 51.6608 -3.4360 105° East 499 574 31,300 -1,600 Climbing FlightAware ADS-B
Mon 04:06:07 AM 51.6519 -3.3748 105° East 468 539 29,300 -1,650 Descending FlightAware UK
Mon 04:06:30 AM 51.6397 -3.2919 105° East 500 575 30,200 -1,750 Climbing FlightAware ADS-B
Mon 04:06:55 AM 51.6265 -3.2015 105° East 462 532 27,900 -1,579 Descending FlightAware UK
Mon 04:07:27 AM 51.6120 -3.1030 105° East 480 552 28,700 -1,625 Climbing FlightAware ADS-B
Mon 04:07:43 AM 51.6018 -3.0353 105° East 452 520 26,600 -1,826 Descending FlightAware UK
Mon 04:07:50 AM 51.5985 -3.0131 105° East 474 545 28,000 -1,600 Climbing FlightAware ADS-B
Mon 04:08:13 AM 51.5867 -2.9341 105° East 448 516 25,800 -1,765 Descending FlightAware UK
Mon 04:08:24 AM 51.5812 -2.8983 105° East 459 528 27,000 -1,800 Climbing FlightAware ADS-B
Mon 04:08:43 AM 51.5718 -2.8346 105° East 442 509 24,900 -1,800 Descending FlightAware UK
Mon 04:08:54 AM 51.5662 -2.7992 105° East 446 513 26,100 -1,800 Climbing FlightAware ADS-B
Mon 04:09:13 AM 51.5570 -2.7382 105° East 438 504 24,000 -1,800 Descending FlightAware UK
Mon 04:09:24 AM 51.5517 -2.7037 105° East 439 505 25,200 -2,000 Climbing FlightAware ADS-B
Mon 04:09:43 AM 51.5425 -2.6436 105° East 428 493 23,000 -2,129 Descending FlightAware UK
Mon 04:09:55 AM 51.5369 -2.6070 105° East 438 504 24,100 -2,000 Climbing FlightAware ADS-B
Mon 04:10:13 AM 51.5281 -2.5493 105° East 424 488 22,000 -1,959 Descending FlightAware UK
Mon 04:10:44 AM 51.5135 -2.4549 105° East 429 494 22,500 -2,000 Climbing FlightAware ADS-B
Mon 04:11:01 AM 51.5052 -2.4012 105° East 412 474 20,400 -1,946 Descending FlightAware UK
Mon 04:11:21 AM 51.4961 -2.3433 105° East 422 486 21,300 -118 Climbing FlightAware ADS-B
Mon 04:11:52 AM 51.4817 -2.2506 104° East 415 478 20,300 -3,736 Descending FlightAware ADS-B
Mon 04:12:14 AM 51.4713 -2.1846 104° East 404 465 18,000 -1,935 Descending FlightAware UK
Mon 04:12:23 AM 51.4673 -2.1592 104° East 409 471 19,300 293 Climbing FlightAware ADS-B
Mon 04:12:55 AM 51.4574 -2.0633 99° East 404 465 18,200 -3,882 Descending FlightAware ADS-B
Mon 04:13:14 AM 51.4527 -2.0073 99° East 394 453 16,000 -2,000 Descending FlightAware UK
Mon 04:13:25 AM 51.4497 -1.9744 99° East 399 459 17,200 -2,000 Climbing FlightAware ADS-B
Mon 04:13:44 AM 51.4449 -1.9198 99° East 394 453 15,000 -2,000 Descending FlightAware UK
Mon 04:13:55 AM 51.4419 -1.8870 99° East 393 452 16,200 439 Climbing FlightAware ADS-B
Mon 04:14:25 AM 51.4343 -1.8012 98° East 386 444 15,300 -3,673 Descending FlightAware ADS-B
Mon 04:14:44 AM 51.4296 -1.7489 98° East 378 435 13,200 -1,500 Descending FlightAware UK
Mon 04:14:57 AM 51.4265 -1.7145 98° East 377 434 14,500 -1,400 Climbing FlightAware ADS-B
Mon 04:15:14 AM 51.4222 -1.6667 98° East 368 423 12,500 -882 Descending FlightAware UK
Mon 04:15:31 AM 51.4179 -1.6202 98° East 373 429 14,000  Climbing FlightAware ADS-B
Mon 04:15:50 AM 51.4132 -1.5680 98° East 362 417 12,500  Descending FlightAware UK
Mon 04:16:02 AM 51.4104 -1.5382 98° East 357 411 14,000  Climbing FlightAware ADS-B
Mon 04:16:20 AM 51.4061 -1.4909 98° East 334 384 12,500 -200 Descending FlightAware UK
Mon 04:16:32 AM 51.4034 -1.4629 98° East 332 382 13,900 -833 Climbing FlightAware ADS-B
Mon 04:16:56 AM 51.3981 -1.4042 98° East 318 366 12,000 -968 Descending FlightAware UK
Mon 04:17:03 AM 51.3966 -1.3888 98° East 323 372 13,400 1,765 Climbing FlightAware ADS-B
Mon 04:17:30 AM 51.3907 -1.3256 98° East 314 361 13,000 -947 Descending FlightAware ADS-B
Mon 04:18:00 AM 51.3842 -1.2570 99° East 307 353 12,500 -984 Descending FlightAware ADS-B
Mon 04:18:31 AM 51.3778 -1.1888 99° East 304 350 12,000 -871 Descending FlightAware ADS-B
Mon 04:19:02 AM 51.3712 -1.1193 99° East 298 343 11,600 -712 Descending FlightAware ADS-B
Mon 04:19:30 AM 51.3655 -1.0599 99° East 296 341 11,300 -517 Descending FlightAware ADS-B
Mon 04:20:00 AM 51.3593 -0.9947 99° East 296 341 11,100 -500 Descending FlightAware ADS-B
Mon 04:20:30 AM 51.3530 -0.9299 99° East 295 339 10,800 -2,400 Descending FlightAware ADS-B
Mon 04:20:50 AM 51.3486 -0.8856 99° East 292 336 9,100 -400 Descending FlightAware UK
Mon 04:21:00 AM 51.3467 -0.8652 99° East 292 336 10,600 -480 Climbing FlightAware ADS-B
Mon 04:21:15 AM 51.3437 -0.8339 99° East 290 334 8,900 -387 Descending FlightAware UK
Mon 04:21:31 AM 51.3404 -0.8008 99° East 291 335 10,400 -500 Climbing FlightAware ADS-B
Mon 04:21:51 AM 51.3362 -0.7575 99° East 290 334 8,600 -600 Descending FlightAware UK
Mon 04:22:01 AM 51.3341 -0.7371 99° East 290 334 10,100 3,360 Climbing FlightAware ADS-B
Mon 04:22:16 AM 51.3309 -0.7045 99° East 291 335 10,000 -581 Descending FlightAware ADS-B
Mon 04:22:32 AM 51.3274 -0.6698 99° East 292 336 9,800 -563 Descending FlightAware ADS-B
Mon 04:22:48 AM 51.3242 -0.6375 99° East 291 335 9,700 -387 Descending FlightAware ADS-B
Mon 04:23:03 AM 51.3210 -0.6051 99° East 290 334 9,600 -387 Descending FlightAware ADS-B
Mon 04:23:19 AM 51.3177 -0.5721 99° East 291 335 9,500 -581 Descending FlightAware ADS-B
Mon 04:23:34 AM 51.3144 -0.5399 99° East 291 335 9,300 -600 Descending FlightAware ADS-B
Mon 04:23:49 AM 51.3113 -0.5090 99° East 285 328 9,200 -462 Descending FlightAware ADS-B
Mon 04:24:00 AM 51.3090 -0.4853 99° East 279 321 9,100 -375 Descending FlightAware ADS-B
Mon 04:24:05 AM 51.3085 -0.4758 95° East 276 318 9,100 -667 Level FlightAware ADS-B
Mon 04:24:09 AM 51.3086 -0.4681 89° East 274 315 9,000 -857 Descending FlightAware ADS-B
Mon 04:24:12 AM 51.3091 -0.4622 82° East 272 313 9,000  Level FlightAware ADS-B
Mon 04:24:15 AM 51.3103 -0.4550 75° East 270 311 9,000 -857 Level FlightAware ADS-B
Mon 04:24:19 AM 51.3119 -0.4485 69° East 268 308 8,900 -667 Descending FlightAware ADS-B
Mon 04:24:24 AM 51.3149 -0.4397 61° Northeast 265 305 8,900 -750 Level FlightAware ADS-B
Mon 04:24:27 AM 51.3174 -0.4346 52° Northeast 262 302 8,800 -857 Descending FlightAware ADS-B
Mon 04:24:31 AM 51.3202 -0.4299 47° Northeast 260 299 8,800 -857 Level FlightAware ADS-B
Mon 04:24:34 AM 51.3230 -0.4260 41° Northeast 258 297 8,700 -857 Descending FlightAware ADS-B
Mon 04:24:38 AM 51.3271 -0.4218 33° Northeast 256 295 8,700  Level FlightAware ADS-B
Mon 04:24:41 AM 51.3302 -0.4193 27° Northeast 255 293 8,700 -1,000 Level FlightAware ADS-B
Mon 04:24:44 AM 51.3336 -0.4173 20° North 254 292 8,600 -857 Descending FlightAware ADS-B
Mon 04:24:48 AM 51.3388 -0.4155 12° North 250 288 8,600 -545 Level FlightAware ADS-B
Mon 04:24:55 AM 51.3457 -0.4147 North 248 285 8,500 -600 Descending FlightAware ADS-B
Mon 04:24:58 AM 51.3497 -0.4147 360° North 247 284 8,500 -632 Level FlightAware ADS-B
Mon 04:25:14 AM 51.3677 -0.4153 359° North 244 281 8,300 -774 Descending FlightAware ADS-B
Mon 04:25:29 AM 51.3850 -0.4161 358° North 244 281 8,100 -818 Descending FlightAware ADS-B
Mon 04:25:36 AM 51.3920 -0.4163 359° North 245 282 8,000 -545 Descending FlightAware ADS-B
Mon 04:25:40 AM 51.3967 -0.4160 North 244 281 8,000 -750 Level FlightAware ADS-B
Mon 04:25:44 AM 51.4015 -0.4147 10° North 245 282 7,900 -750 Descending FlightAware ADS-B
Mon 04:25:48 AM 51.4058 -0.4124 18° North 246 283 7,900 -600 Level FlightAware ADS-B
Mon 04:25:54 AM 51.4115 -0.4074 28° Northeast 245 282 7,800 -1,000 Descending FlightAware ADS-B
Mon 04:26:00 AM 51.4168 -0.4001 41° Northeast 246 283 7,700 -600 Descending FlightAware ADS-B
Mon 04:26:04 AM 51.4195 -0.3946 52° Northeast 247 284 7,700 -667 Level FlightAware ADS-B
Mon 04:26:09 AM 51.4223 -0.3869 60° Northeast 248 285 7,600 -667 Descending FlightAware ADS-B
Mon 04:26:13 AM 51.4239 -0.3797 70° East 249 287 7,600  Level FlightAware ADS-B
Mon 04:26:18 AM 51.4250 -0.3711 78° East 249 287 7,600  Level FlightAware ADS-B
Mon 04:26:21 AM 51.4252 -0.3655 87° East 249 287 7,600 -857 Level FlightAware ADS-B
Mon 04:26:25 AM 51.4247 -0.3570 95° East 249 287 7,500 -500 Descending FlightAware ADS-B
Mon 04:26:33 AM 51.4218 -0.3424 108° East 250 288 7,500  Level FlightAware ADS-B
Mon 04:26:37 AM 51.4198 -0.3363 118° Southeast 250 288 7,500 -300 Level FlightAware ADS-B
Mon 04:26:53 AM 51.4102 -0.3120 122° Southeast 252 290 7,400 -375 Descending FlightAware ADS-B
Mon 04:27:09 AM 51.3995 -0.2860 123° Southeast 252 290 7,300 -375 Descending FlightAware ADS-B
Mon 04:27:25 AM 51.3897 -0.2619 123° Southeast 250 288 7,200 -387 Descending FlightAware ADS-B
Mon 04:27:40 AM 51.3801 -0.2385 123° Southeast 249 287 7,100 -444 Descending FlightAware ADS-B
Mon 04:27:52 AM 51.3730 -0.2204 122° Southeast 248 285 7,000 -750 Descending FlightAware ADS-B
Mon 04:27:56 AM 51.3710 -0.2129 113° Southeast 248 285 6,900 -1,333 Descending FlightAware ADS-B
Mon 04:28:01 AM 51.3697 -0.2052 105° East 247 284 6,800 -667 Descending FlightAware ADS-B
Mon 04:28:05 AM 51.3692 -0.1983 97° East 246 283 6,800  Level FlightAware ADS-B
Mon 04:28:09 AM 51.3693 -0.1907 89° East 245 282 6,800 -667 Level FlightAware ADS-B
Mon 04:28:14 AM 51.3698 -0.1813 85° East 243 280 6,700 -1,000 Descending FlightAware ADS-B
Mon 04:28:21 AM 51.3710 -0.1696 81° East 239 275 6,600 -545 Descending FlightAware ADS-B
Mon 04:28:36 AM 51.3741 -0.1430 79° East 234 269 6,500 -563 Descending FlightAware ADS-B
Mon 04:28:53 AM 51.3777 -0.1141 79° East 233 268 6,300 -581 Descending FlightAware ADS-B
Mon 04:29:07 AM 51.3805 -0.0913 79° East 225 259 6,200 -414 Descending FlightAware ADS-B
Mon 04:29:22 AM 51.3835 -0.0668 79° East 216 249 6,100 -429 Descending FlightAware ADS-B
Mon 04:29:35 AM 51.3861 -0.0468 78° East 209 241 6,000 -600 Descending FlightAware ADS-B
Mon 04:29:42 AM 51.3877 -0.0374 75° East 206 237 5,900 -500 Descending FlightAware ADS-B
Mon 04:29:47 AM 51.3900 -0.0300 64° Northeast 204 235 5,900 -500 Level FlightAware ADS-B
Mon 04:29:54 AM 51.3942 -0.0226 48° Northeast 200 230 5,800 -500 Descending FlightAware ADS-B
Mon 04:29:59 AM 51.3982 -0.0183 33° Northeast 199 229 5,800 -750 Level FlightAware ADS-B
Mon 04:30:02 AM 51.4008 -0.0167 21° North 198 228 5,700 -1,000 Descending FlightAware ADS-B
Mon 04:30:05 AM 51.4035 -0.0155 16° North 198 228 5,700  Level FlightAware ADS-B
Mon 04:30:11 AM 51.4091 -0.0145 North 198 228 5,700 -545 Level FlightAware ADS-B
Mon 04:30:16 AM 51.4129 -0.0144 North 198 228 5,600 -900 Descending FlightAware ADS-B
Mon 04:30:31 AM 51.4269 -0.0162 356° North 198 228 5,400 -800 Descending FlightAware ADS-B
Mon 04:30:46 AM 51.4406 -0.0190 353° North 199 229 5,200 -857 Descending FlightAware ADS-B
Mon 04:30:52 AM 51.4461 -0.0203 352° North 198 228 5,100 -545 Descending FlightAware ADS-B
Mon 04:30:57 AM 51.4505 -0.0220 347° North 198 228 5,100 -667 Level FlightAware ADS-B
Mon 04:31:01 AM 51.4540 -0.0243 337° Northwest 200 230 5,000 -857 Descending FlightAware ADS-B
Mon 04:31:04 AM 51.4563 -0.0268 326° Northwest 201 231 5,000 -857 Level FlightAware ADS-B
Mon 04:31:08 AM 51.4592 -0.0309 319° Northwest 202 232 4,900 -600 Descending FlightAware ADS-B
Mon 04:31:14 AM 51.4624 -0.0372 309° West 202 232 4,900 -462 Level FlightAware ADS-B
Mon 04:31:21 AM 51.4660 -0.0459 303° West 201 231 4,800 -857 Descending FlightAware ADS-B
Mon 04:31:28 AM 51.4694 -0.0555 300° West 200 230 4,700 -1,000 Descending FlightAware ADS-B
Mon 04:31:39 AM 51.4740 -0.0699 297° West 198 228 4,500 -1,125 Descending FlightAware ADS-B
Mon 04:31:44 AM 51.4756 -0.0768 290° West 197 227 4,400 -706 Descending FlightAware ADS-B
Mon 04:31:56 AM 51.4775 -0.0928 281° West 193 222 4,300 -632 Descending FlightAware ADS-B
Mon 04:32:03 AM 51.4780 -0.1037 274° West 187 215 4,200 -1,043 Descending FlightAware ADS-B
Mon 04:32:19 AM 51.4782 -0.1257 271° West 185 213 3,900 -938 Descending FlightAware ADS-B
Mon 04:32:35 AM 51.4782 -0.1473 270° West 183 211 3,700 -909 Descending FlightAware ADS-B
Mon 04:32:52 AM 51.4782 -0.1691 270° West 182 209 3,400 -1,277 Descending FlightAware ADS-B
Mon 04:33:22 AM 51.4780 -0.2060 270° West 181 208 2,700 -2,943 Descending FlightAware ADS-B
Mon 04:33:45 AM 51.4782 -0.2406 270° West 172 198 800 -720 Descending FlightAware UK
Mon 04:33:47 AM 51.4780 -0.2270 270° West 180 207 2,400 7,500 Climbing FlightAware ADS-B
Mon 04:33:57 AM 51.4780 -0.2390 270° West 175 201 2,300 -1,067 Descending FlightAware ADS-B
Mon 04:34:32 AM 51.4780 -0.2950 270° West 167 192 1,600 -1,108 Descending FlightAware ADS-B
Mon 04:35:02 AM 51.4780 -0.3310 270° West 152 175 1,100 -831 Descending FlightAware ADS-B
Mon 04:35:37 AM 51.4780 -0.3680 270° West 141 162 700 -738 Descending FlightAware ADS-B
Mon 04:36:07 AM 51.4780 -0.3980 270° West 141 162 300 -554 Descending FlightAware ADS-B
Mon 04:36:42 AM 51.4780 -0.4220 270° West 140 161 100 -343 Descending FlightAware ADS-B

Login

Don't have an account? Register now (free) for customized features, flight alerts, and more!